Latest Weather Observations for Campania

IDT60901

Issued at 11:01 am EDT Saturday 7 March 2015 (issued every 10 minutes, with the page automatically refreshed every 10 minutes)

About weather observations | Map of Hobart area stations | Latest observations for Hobart area | Other Formats
Station Details ID: 094212 Name: CAMPANIA (KINCORA) Lat: -42.69 Lon: 147.43 Height: 45.0 m
Data from the previous 72 hours. | See also: Recent months at Campania
Date/Time
EDT
Tmp

°C
App
Tmp
°C
Dew
Point
°C
Rel
Hum
%
Delta-T

°C
Wind Press
QNH
hPa
Press
MSL
hPa
Rain
since
9 am
mm
Dir
 
Spd
km/h
Gust
km/h
Spd
kts
Gust
kts
07/11:00am 18.7 16.0 8.9 53 5.1 WNW 13 20 7 11 - - 0.0
07/10:30am 18.4 13.9 8.4 52 5.2 N 22 32 12 17 - - 0.0
07/10:00am 17.0 12.6 7.6 54 4.7 N 20 30 11 16 - - 0.0
07/09:30am 15.8 10.9 6.8 55 4.4 N 22 30 12 16 - - 0.0
07/09:00am 14.9 10.4 6.2 56 4.2 N 19 24 10 13 - - 0.0
07/08:30am 13.9 10.9 5.8 58 3.8 N 11 17 6 9 - - 0.0
07/08:00am 12.5 10.4 5.9 64 3.1 NNW 6 9 3 5 - - 0.0
07/07:30am 11.4 9.0 5.3 66 2.8 NNW 7 11 4 6 - - 0.0
07/07:00am 11.0 9.5 5.1 67 2.7 N 2 7 1 4 - - 0.0
07/06:30am 11.0 9.9 4.9 66 2.8 CALM 0 6 0 3 - - 0.0
07/06:00am 10.5 9.1 5.3 70 2.4 SSE 2 9 1 5 - - 0.0
07/05:30am 10.0 8.9 5.0 71 2.3 CALM 0 0 0 0 - - 0.0
07/05:00am 9.7 8.6 4.9 72 2.2 CALM 0 0 0 0 - - 0.0
07/04:30am 9.7 7.8 4.7 71 2.2 NW 4 7 2 4 - - 0.0
07/04:00am 9.4 6.5 4.6 72 2.1 NNE 9 11 5 6 - - 0.0
07/03:30am 9.5 5.7 4.1 69 2.4 N 13 17 7 9 - - 0.0
07/03:00am 7.4 4.4 4.0 79 1.5 N 9 13 5 7 - - 0.0
07/02:30am 7.0 3.5 3.6 79 1.4 N 11 15 6 8 - - 0.0
07/02:00am 6.4 2.9 3.4 81 1.3 N 11 13 6 7 - - 0.0
07/01:30am 6.4 2.6 3.9 84 1.1 NNE 13 19 7 10 - - 0.0
07/01:00am 6.5 3.0 3.3 80 1.3 N 11 17 6 9 - - 0.0
07/12:30am 6.5 3.0 3.5 81 1.3 NNE 11 13 6 7 - - 0.0
07/12:00am 6.7 2.8 3.5 80 1.4 NNE 13 15 7 8 - - 0.0
 
Date/Time
EDT
Tmp

°C
App
Tmp
°C
Dew
Point
°C
Rel
Hum
%
Delta-T

°C
Wind Press
QNH
hPa
Press
MSL
hPa
Rain
since
9 am
mm
Dir
 
Spd
km/h
Gust
km/h
Spd
kts
Gust
kts
06/11:30pm 7.0 3.1 3.6 79 1.4 N 13 15 7 8 - - 0.0
06/11:00pm 6.7 3.8 2.6 75 1.7 NNW 7 9 4 5 - - 0.0
06/10:30pm 7.4 3.8 2.9 73 1.9 N 11 13 6 7 - - 0.0
06/10:00pm 7.4 5.5 3.1 74 1.8 N 2 9 1 5 - - 0.0
06/09:30pm 7.8 5.6 3.3 73 1.9 NNW 4 7 2 4 - - 0.0
06/09:00pm 8.4 6.9 3.1 69 2.3 CALM 0 0 0 0 - - 0.0
06/08:30pm 10.4 7.8 3.2 61 3.1 SW 6 7 3 4 - - 0.0
06/08:00pm 11.6 9.1 3.6 58 3.6 ESE 6 7 3 4 - - 0.0
06/07:30pm 12.6 9.2 3.8 55 4.0 SE 11 19 6 10 - - 0.0
06/07:00pm 13.7 8.7 3.8 51 4.5 SSE 19 24 10 13 - - 0.0
06/06:30pm 14.5 9.3 3.6 48 5.0 SSE 20 26 11 14 - - 0.0
06/06:00pm 15.4 9.8 3.2 44 5.5 SSE 22 30 12 16 - - 0.0
06/05:30pm 16.8 11.5 2.0 37 6.6 SSW 19 26 10 14 - - 0.0
06/05:00pm 16.6 11.0 1.5 36 6.7 SSW 20 32 11 17 - - 0.0
06/04:30pm 16.0 9.6 1.0 36 6.5 SSW 24 39 13 21 - - 0.0
06/04:00pm 16.9 11.6 2.1 37 6.7 SW 19 39 10 21 - - 0.0
06/03:30pm 16.0 9.3 1.7 38 6.3 WSW 26 43 14 23 - - 0.0
06/03:00pm 15.7 11.1 1.8 39 6.2 WSW 15 44 8 24 - - 0.0
06/02:44pm 16.3 9.2 1.6 37 6.5 SSW 28 48 15 26 - - 0.0
06/02:30pm 16.2 10.0 2.2 39 6.3 SSW 24 37 13 20 - - 0.0
06/02:00pm 15.9 9.0 2.7 41 6.0 SW 28 48 15 26 - - 0.0
06/01:37pm 15.6 7.1 3.1 43 5.7 SW 37 57 20 31 - - 0.0
06/01:30pm 15.1 6.6 3.3 45 5.4 SSW 37 54 20 29 - - 0.0
06/01:00pm 15.1 6.2 3.0 44 5.5 SW 39 61 21 33 - - 0.0
06/12:39pm 15.3 7.9 3.8 46 5.3 SW 32 50 17 27 - - 0.0
06/12:30pm 13.9 6.7 2.8 47 4.9 SSW 30 37 16 20 - - 0.0
06/12:00pm 13.6 7.5 2.8 48 4.8 SW 24 41 13 22 - - 0.0
06/11:30am 13.3 8.2 4.2 54 4.2 WSW 20 37 11 20 - - 0.0
06/11:19am 12.7 5.8 2.8 51 4.4 SW 28 46 15 25 - - 0.0
06/11:00am 12.6 6.2 3.3 53 4.1 SSW 26 43 14 23 - - 0.0
06/10:30am 13.0 7.8 2.3 48 4.7 S 19 43 10 23 - - 0.0
06/10:00am 12.9 8.3 1.3 45 4.9 SW 15 33 8 18 - - 0.0
06/09:30am 12.5 6.6 1.8 48 4.6 WNW 22 43 12 23 - - 0.0
06/09:00am 11.9 4.3 3.7 57 3.7 W 33 56 18 30 - - 0.0
06/08:30am 12.3 5.3 4.0 57 3.7 W 30 61 16 33 - - 0.0
06/08:21am 12.2 5.5 3.4 55 3.9 W 28 61 15 33 - - 0.0
06/08:00am 11.7 6.7 4.7 62 3.2 W 20 61 11 33 - - 0.0
06/07:30am 12.9 6.1 3.3 52 4.3 W 28 46 15 25 - - 0.0
06/07:15am 13.0 6.4 4.4 56 3.9 W 28 54 15 29 - - 0.0
06/07:00am 13.2 7.4 4.6 56 4.0 WSW 24 43 13 23 - - 0.0
06/06:30am 13.7 10.5 5.3 57 3.9 NE 11 30 6 16 - - 0.0
06/06:00am 14.2 9.2 6.3 59 3.8 W 22 44 12 24 - - 0.0
06/05:30am 14.6 9.0 7.2 61 3.6 W 26 41 14 22 - - 0.0
06/05:09am 14.7 8.8 7.5 62 3.6 WSW 28 46 15 25 - - 0.0
06/05:00am 15.1 8.8 7.4 60 3.8 W 30 46 16 25 - - 0.0
06/04:30am 15.2 9.1 8.2 63 3.5 W 30 48 16 26 - - 0.0
06/04:08am 15.2 9.1 8.2 63 3.5 W 30 69 16 37 - - 0.0
06/04:00am 15.6 9.0 7.9 60 3.9 W 32 50 17 27 - - 0.0
06/03:48am 15.3 9.2 8.1 62 3.6 W 30 52 16 28 - - 0.0
06/03:30am 15.1 10.9 8.1 63 3.5 W 20 37 11 20 - - 0.0
06/03:00am 15.2 10.2 8.0 62 3.6 W 24 35 13 19 - - 0.0
06/02:30am 15.0 10.2 7.5 61 3.7 W 22 44 12 24 - - 0.0
06/02:00am 14.8 9.3 7.4 61 3.7 NW 26 46 14 25 - - 0.0
06/01:55am 14.8 8.8 7.1 60 3.8 NW 28 46 15 25 - - 0.0
06/01:30am 14.7 9.4 6.8 59 3.9 NW 24 44 13 24 - - 0.0
06/01:05am 14.9 8.0 6.5 57 4.1 NW 32 50 17 27 - - 0.0
06/01:00am 14.8 8.3 6.4 57 4.1 NW 30 44 16 24 - - 0.0
06/12:30am 14.9 8.6 5.7 54 4.4 WNW 28 39 15 21 - - 0.0
06/12:00am 14.8 9.2 5.6 54 4.4 WNW 24 37 13 20 - - 0.0
 
Date/Time
EDT
Tmp

°C
App
Tmp
°C
Dew
Point
°C
Rel
Hum
%
Delta-T

°C
Wind Press
QNH
hPa
Press
MSL
hPa
Rain
since
9 am
mm
Dir
 
Spd
km/h
Gust
km/h
Spd
kts
Gust
kts
05/11:30pm 14.3 7.9 5.4 55 4.2 WNW 28 41 15 22 - - 0.0
05/11:01pm 14.0 7.2 5.1 55 4.2 WNW 30 48 16 26 - - 0.0
05/11:00pm 13.9 6.7 5.0 55 4.2 WNW 32 48 17 26 - - 0.0
05/10:30pm 13.4 6.0 4.8 56 4.0 W 33 52 18 28 - - 0.0
05/10:13pm 13.2 6.3 4.4 55 4.0 W 30 48 16 26 - - 0.0
05/10:00pm 13.1 5.8 4.5 56 3.9 W 32 46 17 25 - - 0.0
05/09:49pm 13.0 5.7 4.4 56 3.9 WNW 32 50 17 27 - - 0.0
05/09:30pm 12.6 6.8 4.3 57 3.8 WNW 24 37 13 20 - - 0.0
05/09:00pm 12.1 6.6 4.1 58 3.6 WNW 22 35 12 19 - - 0.0
05/08:30pm 12.0 5.4 4.0 58 3.6 WNW 28 39 15 21 - - 0.0
05/08:00pm 12.1 5.4 3.9 57 3.7 WNW 28 43 15 23 - - 0.0
05/07:33pm 12.4 4.9 3.6 55 3.9 WNW 32 56 17 30 - - 0.0
05/07:30pm 12.4 5.7 3.6 55 3.9 WNW 28 43 15 23 - - 0.0
05/07:00pm 13.0 6.2 3.1 51 4.4 WNW 28 43 15 23 - - 0.0
05/06:45pm 13.0 6.2 3.1 51 4.4 WNW 28 46 15 25 - - 0.0
05/06:30pm 13.5 6.1 2.1 46 5.0 WNW 30 44 16 24 - - 0.0
05/06:00pm 13.7 7.4 1.7 44 5.2 W 24 39 13 21 - - 0.0
05/05:33pm 14.6 7.0 0.5 38 6.0 WNW 30 48 16 26 - - 0.0
05/05:30pm 14.4 7.5 0.3 38 6.0 WNW 26 44 14 24 - - 0.0
05/05:00pm 14.8 7.2 0.3 37 6.2 W 30 46 16 25 - - 0.0
05/04:51pm 14.4 7.1 0.3 38 6.0 W 28 46 15 25 - - 0.0
05/04:30pm 14.4 7.3 1.3 41 5.7 WNW 28 44 15 24 - - 0.0
05/04:00pm 14.7 6.2 0.9 39 5.9 WNW 35 54 19 29 - - 0.0
05/03:30pm 15.2 5.6 1.4 39 6.0 W 41 59 22 32 - - 0.0
05/03:01pm 15.3 7.7 2.8 43 5.6 W 32 50 17 27 - - 0.0
05/03:00pm 14.9 7.1 2.8 44 5.4 W 33 50 18 27 - - 0.0
05/02:30pm 14.8 6.8 1.7 41 5.7 W 33 54 18 29 - - 0.0
05/02:10pm 14.4 6.7 2.3 44 5.4 W 32 52 17 28 - - 0.0
05/02:00pm 14.4 6.6 2.9 46 5.2 WNW 33 48 18 26 - - 0.0
05/01:30pm 14.4 6.5 2.3 44 5.4 W 33 61 18 33 - - 0.0
05/01:05pm 15.2 8.5 3.4 45 5.4 W 28 48 15 26 - - 0.0
05/01:00pm 14.7 7.4 2.6 44 5.4 W 30 44 16 24 - - 0.0
05/12:50pm 14.8 6.8 1.7 41 5.7 WNW 33 52 18 28 - - 0.0
05/12:30pm 14.2 3.8 -0.3 37 6.0 WSW 44 70 24 38 - - 0.0
05/12:00pm 13.9 5.6 2.2 45 5.1 W 35 54 19 29 - - 0.0
05/11:41am 12.7 5.7 1.7 47 4.7 W 28 46 15 25 - - 0.0
05/11:30am 12.5 6.2 1.5 47 4.7 W 24 46 13 25 - - 0.0
05/11:22am 12.3 5.1 0.7 45 4.9 W 28 46 15 25 - - 0.0
05/11:00am 12.0 8.9 1.3 48 4.5 W 7 33 4 18 - - 0.0
05/10:32am 11.5 4.5 1.7 51 4.2 W 28 46 15 25 - - 0.0
05/10:30am 11.2 4.9 1.5 51 4.1 W 24 46 13 25 - - 0.0
05/10:00am 11.5 5.9 1.2 49 4.3 W 20 44 11 24 - - 0.0
05/09:30am 9.9 3.2 1.3 55 3.6 W 26 52 14 28 - - 0.0
05/09:00am 9.2 3.6 3.2 66 2.6 WSW 22 33 12 18 - - 1.8
05/08:30am 7.8 2.1 2.9 71 2.1 W 22 39 12 21 - - 1.8
05/08:00am 7.9 -0.2 3.2 72 2.0 WSW 35 54 19 29 - - 1.4
05/07:58am 7.9 -0.1 3.6 74 1.8 WSW 35 54 19 29 - - 1.2
05/07:57am 8.0 -0.9 3.3 72 2.0 WSW 39 54 21 29 - - 1.2
05/07:30am 8.4 2.7 2.8 68 2.4 W 22 32 12 17 - - 0.8
05/07:00am 8.2 3.2 3.7 73 1.9 W 19 26 10 14 - - 0.8
05/06:30am 8.8 2.1 3.6 70 2.3 W 28 41 15 22 - - 0.8
05/06:01am 8.6 1.1 3.6 71 2.2 WSW 32 50 17 27 - - 0.8
05/06:00am 8.6 1.2 3.8 72 2.1 W 32 44 17 24 - - 0.8
05/05:30am 9.7 5.0 3.4 65 2.7 WSW 17 37 9 20 - - 0.6
05/05:00am 9.6 2.5 3.4 65 2.7 W 30 39 16 21 - - 0.6
05/04:30am 9.6 3.5 4.6 71 2.2 W 26 41 14 22 - - 0.6
05/04:00am 10.3 5.0 4.9 69 2.4 W 22 35 12 19 - - 0.4
05/03:30am 10.5 5.2 5.1 69 2.5 WNW 22 39 12 21 - - 0.4
05/03:00am 11.1 6.5 3.9 61 3.2 W 17 37 9 20 - - 0.4
05/02:30am 11.1 6.0 4.1 62 3.1 W 20 30 11 16 - - 0.4
05/02:00am 11.7 5.6 4.7 62 3.2 W 26 44 14 24 - - 0.4
05/01:30am 12.1 7.7 6.6 69 2.6 W 19 33 10 18 - - 0.4
05/01:00am 12.2 7.4 7.5 73 2.3 WSW 22 32 12 17 - - 0.4
05/12:30am 13.1 10.1 7.5 69 2.7 W 13 20 7 11 - - 0.0
05/12:00am 13.6 8.5 7.6 67 3.0 W 24 35 13 19 - - 0.0
 
Date/Time
EDT
Tmp

°C
App
Tmp
°C
Dew
Point
°C
Rel
Hum
%
Delta-T

°C
Wind Press
QNH
hPa
Press
MSL
hPa
Rain
since
9 am
mm
Dir
 
Spd
km/h
Gust
km/h
Spd
kts
Gust
kts
04/11:30pm 15.2 9.7 5.7 53 4.5 NW 24 41 13 22 - - 0.0
04/11:00pm 15.3 9.5 6.3 55 4.4 NW 26 44 14 24 - - 0.0
04/10:30pm 15.4 9.7 6.7 56 4.3 NW 26 46 14 25 - - 0.0
04/10:00pm 15.7 9.5 6.2 53 4.6 NW 28 39 15 21 - - 0.0
04/09:30pm 16.0 10.6 6.2 52 4.8 NW 24 35 13 19 - - 0.0
04/09:00pm 16.3 9.7 5.9 50 5.0 NW 30 48 16 26 - - 0.0
04/08:53pm 16.5 10.2 5.8 49 5.2 WNW 28 48 15 26 - - 0.0
04/08:30pm 16.4 10.7 6.8 53 4.7 WNW 26 44 14 24 - - 0.0
04/08:13pm 16.4 10.6 8.1 58 4.2 WNW 28 46 15 25 - - 0.0
04/08:00pm 17.0 12.5 8.4 57 4.4 WNW 22 33 12 18 - - 0.0
04/07:30pm 17.2 13.0 8.1 55 4.6 NW 20 30 11 16 - - 0.0
04/07:00pm 17.8 12.7 7.5 51 5.2 WNW 24 37 13 20 - - 0.0
04/06:34pm 18.7 11.8 7.2 47 5.8 WNW 33 52 18 28 - - 0.0
04/06:30pm 18.7 11.0 6.9 46 5.9 NW 37 52 20 28 - - 0.0
04/06:11pm 19.3 11.2 6.8 44 6.3 NW 39 57 21 31 - - 0.0
04/06:00pm 19.6 12.2 6.7 43 6.5 NW 35 52 19 28 - - 0.0
04/05:34pm 19.6 11.4 6.7 43 6.5 NW 39 57 21 31 - - 0.0
04/05:30pm 19.7 11.1 6.4 42 6.7 NW 41 57 22 31 - - 0.0
04/05:00pm 20.1 11.6 6.8 42 6.7 WNW 41 65 22 35 - - 0.0
04/04:30pm 21.2 11.9 7.4 41 7.1 NW 46 70 25 38 - - 0.0
04/04:23pm 20.8 12.0 7.1 41 7.0 NW 43 70 23 38 - - 0.0
04/04:00pm 21.2 14.7 6.7 39 7.4 WNW 30 48 16 26 - - 0.0
04/03:30pm 21.3 12.3 6.4 38 7.5 NW 43 67 23 36 - - 0.0
04/03:00pm 21.8 12.9 7.6 40 7.4 WNW 44 69 24 37 - - 0.0
04/02:50pm 22.2 14.5 7.2 38 7.8 W 37 61 20 33 - - 0.0
04/02:48pm 22.9 14.9 7.4 37 8.1 W 39 61 21 33 - - 0.0
04/02:30pm 22.6 13.3 7.6 38 7.8 NW 46 74 25 40 - - 0.0
04/02:00pm 22.7 14.1 8.0 39 7.7 NW 43 61 23 33 - - 0.0
04/01:30pm 22.6 14.8 8.3 40 7.6 WNW 39 59 21 32 - - 0.0
04/01:00pm 22.0 15.1 8.9 43 7.0 WNW 35 56 19 30 - - 0.0
04/12:30pm 21.8 14.6 9.0 44 6.8 NW 37 57 20 31 - - 0.0
04/12:00pm 21.0 13.1 8.0 43 6.8 WNW 39 57 21 31 - - 0.0
04/11:30am 21.2 12.3 7.8 42 7.0 WNW 44 70 24 38 - - 0.0

Latest Capital City Observations: Canberra | Sydney | Melbourne | Brisbane | Adelaide | Perth | Hobart | Darwin

Other Formats:

Comma delimited format used in spreadsheet applications
http://www.bom.gov.au/fwo/IDT60901/IDT60901.95972.axf

JavaScript Object Notation format (JSON) in row-major order
http://www.bom.gov.au/fwo/IDT60901/IDT60901.95972.json